sensor_id;sensor_type;location;lat;lon;timestamp;P1;durP1;ratioP1;P2;durP2;ratioP2
8480;SDS011;4277;51.354;6.740;2022-08-21T00:01:29;5.32;;;2.85;;
8480;SDS011;4277;51.354;6.740;2022-08-21T00:03:56;4.63;;;3.05;;
8480;SDS011;4277;51.354;6.740;2022-08-21T00:06:22;5.53;;;3.08;;
8480;SDS011;4277;51.354;6.740;2022-08-21T00:08:49;6.82;;;3.30;;
8480;SDS011;4277;51.354;6.740;2022-08-21T00:11:15;7.57;;;2.90;;
8480;SDS011;4277;51.354;6.740;2022-08-21T00:13:41;10.63;;;3.50;;
8480;SDS011;4277;51.354;6.740;2022-08-21T00:16:07;5.28;;;3.45;;
8480;SDS011;4277;51.354;6.740;2022-08-21T00:18:33;5.13;;;3.20;;
8480;SDS011;4277;51.354;6.740;2022-08-21T00:20:59;6.88;;;3.47;;
8480;SDS011;4277;51.354;6.740;2022-08-21T00:23:25;4.28;;;3.00;;
8480;SDS011;4277;51.354;6.740;2022-08-21T00:25:51;5.78;;;2.90;;
8480;SDS011;4277;51.354;6.740;2022-08-21T00:28:17;6.80;;;3.40;;
8480;SDS011;4277;51.354;6.740;2022-08-21T00:30:43;6.50;;;2.78;;
8480;SDS011;4277;51.354;6.740;2022-08-21T00:33:10;5.38;;;3.10;;
8480;SDS011;4277;51.354;6.740;2022-08-21T00:35:36;4.22;;;2.90;;
8480;SDS011;4277;51.354;6.740;2022-08-21T00:38:03;8.15;;;3.17;;
8480;SDS011;4277;51.354;6.740;2022-08-21T00:40:49;5.70;;;3.30;;
8480;SDS011;4277;51.354;6.740;2022-08-21T00:43:17;5.43;;;3.30;;
8480;SDS011;4277;51.354;6.740;2022-08-21T00:45:43;6.68;;;3.30;;
8480;SDS011;4277;51.354;6.740;2022-08-21T00:48:09;5.45;;;3.40;;
8480;SDS011;4277;51.354;6.740;2022-08-21T00:50:38;5.55;;;3.17;;
8480;SDS011;4277;51.354;6.740;2022-08-21T00:53:06;5.80;;;3.30;;
8480;SDS011;4277;51.354;6.740;2022-08-21T00:55:32;6.47;;;3.63;;
8480;SDS011;4277;51.354;6.740;2022-08-21T00:57:59;6.32;;;3.85;;
8480;SDS011;4277;51.354;6.740;2022-08-21T01:00:31;6.15;;;4.13;;
8480;SDS011;4277;51.354;6.740;2022-08-21T01:02:58;6.95;;;3.75;;
8480;SDS011;4277;51.354;6.740;2022-08-21T01:05:25;6.68;;;3.83;;
8480;SDS011;4277;51.354;6.740;2022-08-21T01:07:51;6.47;;;4.00;;
8480;SDS011;4277;51.354;6.740;2022-08-21T01:10:18;6.88;;;3.63;;
8480;SDS011;4277;51.354;6.740;2022-08-21T01:12:44;6.68;;;4.20;;
8480;SDS011;4277;51.354;6.740;2022-08-21T01:15:10;6.28;;;3.80;;
8480;SDS011;4277;51.354;6.740;2022-08-21T01:17:38;6.22;;;3.85;;
8480;SDS011;4277;51.354;6.740;2022-08-21T01:20:06;6.15;;;3.92;;
8480;SDS011;4277;51.354;6.740;2022-08-21T01:22:32;6.22;;;4.50;;
8480;SDS011;4277;51.354;6.740;2022-08-21T01:24:58;8.98;;;4.60;;
8480;SDS011;4277;51.354;6.740;2022-08-21T01:27:24;6.30;;;4.18;;
8480;SDS011;4277;51.354;6.740;2022-08-21T01:29:54;6.82;;;4.55;;
8480;SDS011;4277;51.354;6.740;2022-08-21T01:32:22;4.53;;;4.13;;
8480;SDS011;4277;51.354;6.740;2022-08-21T01:34:49;8.02;;;4.82;;
8480;SDS011;4277;51.354;6.740;2022-08-21T01:37:15;6.75;;;4.95;;
8480;SDS011;4277;51.354;6.740;2022-08-21T01:39:42;10.67;;;4.40;;
8480;SDS011;4277;51.354;6.740;2022-08-21T01:42:08;7.17;;;4.30;;
8480;SDS011;4277;51.354;6.740;2022-08-21T01:44:35;7.35;;;4.22;;
8480;SDS011;4277;51.354;6.740;2022-08-21T01:47:03;6.72;;;4.50;;
8480;SDS011;4277;51.354;6.740;2022-08-21T01:49:29;8.85;;;4.68;;
8480;SDS011;4277;51.354;6.740;2022-08-21T01:51:55;6.07;;;4.22;;
8480;SDS011;4277;51.354;6.740;2022-08-21T01:54:21;5.05;;;4.35;;
8480;SDS011;4277;51.354;6.740;2022-08-21T01:56:49;7.03;;;4.30;;
8480;SDS011;4277;51.354;6.740;2022-08-21T01:59:16;6.00;;;4.43;;
8480;SDS011;4277;51.354;6.740;2022-08-21T02:01:42;7.97;;;4.60;;
8480;SDS011;4277;51.354;6.740;2022-08-21T02:04:08;7.13;;;4.55;;
8480;SDS011;4277;51.354;6.740;2022-08-21T02:06:35;6.63;;;4.72;;
8480;SDS011;4277;51.354;6.740;2022-08-21T02:09:03;7.60;;;4.40;;
8480;SDS011;4277;51.354;6.740;2022-08-21T02:11:29;7.10;;;4.82;;
8480;SDS011;4277;51.354;6.740;2022-08-21T02:13:55;5.38;;;4.60;;
8480;SDS011;4277;51.354;6.740;2022-08-21T02:16:21;8.30;;;5.03;;
8480;SDS011;4277;51.354;6.740;2022-08-21T02:18:47;6.77;;;4.83;;
8480;SDS011;4277;51.354;6.740;2022-08-21T02:21:13;8.47;;;4.93;;
8480;SDS011;4277;51.354;6.740;2022-08-21T02:23:39;9.13;;;5.30;;
8480;SDS011;4277;51.354;6.740;2022-08-21T02:26:05;8.23;;;5.00;;
8480;SDS011;4277;51.354;6.740;2022-08-21T02:28:32;7.20;;;4.83;;
8480;SDS011;4277;51.354;6.740;2022-08-21T02:30:58;10.20;;;4.83;;
8480;SDS011;4277;51.354;6.740;2022-08-21T02:33:25;7.57;;;5.37;;
8480;SDS011;4277;51.354;6.740;2022-08-21T02:35:51;8.07;;;5.80;;
8480;SDS011;4277;51.354;6.740;2022-08-21T02:38:19;6.57;;;5.40;;
8480;SDS011;4277;51.354;6.740;2022-08-21T02:40:46;8.60;;;5.70;;
8480;SDS011;4277;51.354;6.740;2022-08-21T02:43:12;7.03;;;5.30;;
8480;SDS011;4277;51.354;6.740;2022-08-21T02:45:39;8.57;;;5.30;;
8480;SDS011;4277;51.354;6.740;2022-08-21T02:48:08;5.53;;;5.00;;
8480;SDS011;4277;51.354;6.740;2022-08-21T02:50:35;8.80;;;5.40;;
8480;SDS011;4277;51.354;6.740;2022-08-21T02:53:02;7.53;;;5.40;;
8480;SDS011;4277;51.354;6.740;2022-08-21T02:55:29;8.20;;;5.43;;
8480;SDS011;4277;51.354;6.740;2022-08-21T02:57:56;7.60;;;5.33;;
8480;SDS011;4277;51.354;6.740;2022-08-21T03:00:23;7.07;;;5.13;;
8480;SDS011;4277;51.354;6.740;2022-08-21T03:02:50;6.80;;;5.53;;
8480;SDS011;4277;51.354;6.740;2022-08-21T03:05:16;8.80;;;5.30;;
8480;SDS011;4277;51.354;6.740;2022-08-21T03:07:43;5.57;;;4.80;;
8480;SDS011;4277;51.354;6.740;2022-08-21T03:10:10;5.93;;;5.20;;
8480;SDS011;4277;51.354;6.740;2022-08-21T03:12:36;8.33;;;5.47;;
8480;SDS011;4277;51.354;6.740;2022-08-21T03:15:03;10.23;;;5.73;;
8480;SDS011;4277;51.354;6.740;2022-08-21T03:17:29;7.37;;;5.40;;
8480;SDS011;4277;51.354;6.740;2022-08-21T03:19:55;8.17;;;5.50;;
8480;SDS011;4277;51.354;6.740;2022-08-21T03:22:21;6.53;;;5.73;;
8480;SDS011;4277;51.354;6.740;2022-08-21T03:24:47;8.23;;;5.23;;
8480;SDS011;4277;51.354;6.740;2022-08-21T03:27:13;6.07;;;4.90;;
8480;SDS011;4277;51.354;6.740;2022-08-21T03:29:40;6.20;;;5.27;;
8480;SDS011;4277;51.354;6.740;2022-08-21T03:32:06;6.37;;;5.10;;
8480;SDS011;4277;51.354;6.740;2022-08-21T03:34:34;7.40;;;5.43;;
8480;SDS011;4277;51.354;6.740;2022-08-21T03:37:00;7.17;;;5.83;;
8480;SDS011;4277;51.354;6.740;2022-08-21T03:39:26;7.77;;;5.70;;
8480;SDS011;4277;51.354;6.740;2022-08-21T03:41:52;6.73;;;5.73;;
8480;SDS011;4277;51.354;6.740;2022-08-21T03:44:19;10.27;;;6.10;;
8480;SDS011;4277;51.354;6.740;2022-08-21T03:46:45;8.17;;;5.90;;
8480;SDS011;4277;51.354;6.740;2022-08-21T03:49:11;7.67;;;5.80;;
8480;SDS011;4277;51.354;6.740;2022-08-21T03:51:37;8.93;;;6.00;;
8480;SDS011;4277;51.354;6.740;2022-08-21T03:54:03;7.80;;;6.17;;
8480;SDS011;4277;51.354;6.740;2022-08-21T03:56:29;8.20;;;6.30;;
8480;SDS011;4277;51.354;6.740;2022-08-21T03:58:55;7.90;;;5.77;;
8480;SDS011;4277;51.354;6.740;2022-08-21T04:01:21;7.93;;;6.07;;
8480;SDS011;4277;51.354;6.740;2022-08-21T04:03:47;9.93;;;6.53;;
8480;SDS011;4277;51.354;6.740;2022-08-21T04:06:13;7.40;;;6.37;;
8480;SDS011;4277;51.354;6.740;2022-08-21T04:08:39;7.13;;;5.60;;
8480;SDS011;4277;51.354;6.740;2022-08-21T04:11:07;8.33;;;6.30;;
8480;SDS011;4277;51.354;6.740;2022-08-21T04:13:35;8.77;;;6.57;;
8480;SDS011;4277;51.354;6.740;2022-08-21T04:16:01;6.80;;;6.07;;
8480;SDS011;4277;51.354;6.740;2022-08-21T04:18:27;6.87;;;5.60;;
8480;SDS011;4277;51.354;6.740;2022-08-21T04:20:54;6.97;;;6.27;;
8480;SDS011;4277;51.354;6.740;2022-08-21T04:23:22;8.00;;;6.27;;
8480;SDS011;4277;51.354;6.740;2022-08-21T04:25:48;6.90;;;6.20;;
8480;SDS011;4277;51.354;6.740;2022-08-21T04:28:14;7.10;;;6.30;;
8480;SDS011;4277;51.354;6.740;2022-08-21T04:30:40;9.83;;;6.33;;
8480;SDS011;4277;51.354;6.740;2022-08-21T04:33:06;7.10;;;6.40;;
8480;SDS011;4277;51.354;6.740;2022-08-21T04:35:32;8.27;;;6.70;;
8480;SDS011;4277;51.354;6.740;2022-08-21T04:37:58;9.40;;;6.87;;
8480;SDS011;4277;51.354;6.740;2022-08-21T04:40:26;8.80;;;7.17;;
8480;SDS011;4277;51.354;6.740;2022-08-21T04:42:53;9.20;;;7.00;;
8480;SDS011;4277;51.354;6.740;2022-08-21T04:45:29;10.87;;;6.93;;
8480;SDS011;4277;51.354;6.740;2022-08-21T04:47:56;9.83;;;7.63;;
8480;SDS011;4277;51.354;6.740;2022-08-21T04:50:23;10.40;;;7.20;;
8480;SDS011;4277;51.354;6.740;2022-08-21T04:52:50;9.13;;;7.13;;
8480;SDS011;4277;51.354;6.740;2022-08-21T04:55:16;9.17;;;7.37;;
8480;SDS011;4277;51.354;6.740;2022-08-21T04:57:43;9.50;;;7.47;;
8480;SDS011;4277;51.354;6.740;2022-08-21T05:00:09;9.67;;;8.10;;
8480;SDS011;4277;51.354;6.740;2022-08-21T05:02:37;11.53;;;8.27;;
8480;SDS011;4277;51.354;6.740;2022-08-21T05:05:04;10.57;;;9.17;;
8480;SDS011;4277;51.354;6.740;2022-08-21T05:07:30;15.23;;;10.10;;
8480;SDS011;4277;51.354;6.740;2022-08-21T05:09:57;13.20;;;9.70;;
8480;SDS011;4277;51.354;6.740;2022-08-21T05:12:24;14.30;;;10.50;;
8480;SDS011;4277;51.354;6.740;2022-08-21T05:14:50;14.23;;;9.70;;
8480;SDS011;4277;51.354;6.740;2022-08-21T05:17:16;14.93;;;9.80;;
8480;SDS011;4277;51.354;6.740;2022-08-21T05:19:42;11.10;;;9.93;;
8480;SDS011;4277;51.354;6.740;2022-08-21T05:22:08;14.67;;;10.10;;
8480;SDS011;4277;51.354;6.740;2022-08-21T05:24:34;14.67;;;11.03;;
8480;SDS011;4277;51.354;6.740;2022-08-21T05:27:00;13.37;;;10.60;;
8480;SDS011;4277;51.354;6.740;2022-08-21T05:29:26;12.03;;;10.80;;
8480;SDS011;4277;51.354;6.740;2022-08-21T05:31:54;14.43;;;11.10;;
8480;SDS011;4277;51.354;6.740;2022-08-21T05:34:21;12.87;;;11.07;;
8480;SDS011;4277;51.354;6.740;2022-08-21T05:36:47;13.33;;;10.93;;
8480;SDS011;4277;51.354;6.740;2022-08-21T05:39:13;15.50;;;10.40;;
8480;SDS011;4277;51.354;6.740;2022-08-21T05:41:39;11.90;;;9.53;;
8480;SDS011;4277;51.354;6.740;2022-08-21T05:44:05;14.57;;;9.67;;
8480;SDS011;4277;51.354;6.740;2022-08-21T05:46:31;16.17;;;9.47;;
8480;SDS011;4277;51.354;6.740;2022-08-21T05:48:57;15.77;;;9.37;;
8480;SDS011;4277;51.354;6.740;2022-08-21T05:51:23;14.50;;;8.43;;
8480;SDS011;4277;51.354;6.740;2022-08-21T05:53:49;12.60;;;7.40;;
8480;SDS011;4277;51.354;6.740;2022-08-21T05:56:15;13.13;;;6.77;;
8480;SDS011;4277;51.354;6.740;2022-08-21T05:58:41;8.80;;;6.67;;
8480;SDS011;4277;51.354;6.740;2022-08-21T06:01:08;13.83;;;6.10;;
8480;SDS011;4277;51.354;6.740;2022-08-21T06:03:35;10.70;;;5.70;;
8480;SDS011;4277;51.354;6.740;2022-08-21T06:06:01;9.50;;;5.80;;
8480;SDS011;4277;51.354;6.740;2022-08-21T06:08:28;10.07;;;5.57;;
8480;SDS011;4277;51.354;6.740;2022-08-21T06:10:55;7.82;;;5.13;;
8480;SDS011;4277;51.354;6.740;2022-08-21T06:13:21;8.60;;;5.07;;
8480;SDS011;4277;51.354;6.740;2022-08-21T06:15:48;9.33;;;4.83;;
8480;SDS011;4277;51.354;6.740;2022-08-21T06:18:14;8.68;;;4.80;;
8480;SDS011;4277;51.354;6.740;2022-08-21T06:20:40;8.65;;;4.78;;
8480;SDS011;4277;51.354;6.740;2022-08-21T06:23:07;9.07;;;4.90;;
8480;SDS011;4277;51.354;6.740;2022-08-21T06:25:33;10.97;;;5.40;;
8480;SDS011;4277;51.354;6.740;2022-08-21T06:28:09;10.15;;;4.97;;
8480;SDS011;4277;51.354;6.740;2022-08-21T06:30:35;7.73;;;4.80;;
8480;SDS011;4277;51.354;6.740;2022-08-21T06:33:02;8.87;;;4.63;;
8480;SDS011;4277;51.354;6.740;2022-08-21T06:35:28;7.07;;;4.53;;
8480;SDS011;4277;51.354;6.740;2022-08-21T06:37:55;7.80;;;4.10;;
8480;SDS011;4277;51.354;6.740;2022-08-21T06:40:21;11.75;;;4.40;;
8480;SDS011;4277;51.354;6.740;2022-08-21T06:42:47;10.57;;;5.13;;
8480;SDS011;4277;51.354;6.740;2022-08-21T06:45:13;10.73;;;4.53;;
8480;SDS011;4277;51.354;6.740;2022-08-21T06:47:39;11.63;;;4.90;;
8480;SDS011;4277;51.354;6.740;2022-08-21T06:50:05;7.50;;;4.38;;
8480;SDS011;4277;51.354;6.740;2022-08-21T06:52:38;7.73;;;4.30;;
8480;SDS011;4277;51.354;6.740;2022-08-21T06:55:05;9.63;;;4.63;;
8480;SDS011;4277;51.354;6.740;2022-08-21T06:57:31;9.10;;;4.32;;
8480;SDS011;4277;51.354;6.740;2022-08-21T06:59:57;10.70;;;4.50;;
8480;SDS011;4277;51.354;6.740;2022-08-21T07:02:23;9.90;;;4.50;;
8480;SDS011;4277;51.354;6.740;2022-08-21T07:04:49;8.63;;;4.95;;
8480;SDS011;4277;51.354;6.740;2022-08-21T07:07:15;7.57;;;4.13;;
8480;SDS011;4277;51.354;6.740;2022-08-21T07:09:42;8.18;;;4.45;;
8480;SDS011;4277;51.354;6.740;2022-08-21T07:12:08;8.40;;;4.57;;
8480;SDS011;4277;51.354;6.740;2022-08-21T07:14:35;6.20;;;3.85;;
8480;SDS011;4277;51.354;6.740;2022-08-21T07:17:01;8.98;;;4.07;;
8480;SDS011;4277;51.354;6.740;2022-08-21T07:19:27;7.93;;;3.63;;
8480;SDS011;4277;51.354;6.740;2022-08-21T07:21:57;8.68;;;3.63;;
8480;SDS011;4277;51.354;6.740;2022-08-21T07:24:24;9.43;;;3.67;;
8480;SDS011;4277;51.354;6.740;2022-08-21T07:26:50;6.10;;;2.90;;
8480;SDS011;4277;51.354;6.740;2022-08-21T07:29:16;7.22;;;3.55;;
8480;SDS011;4277;51.354;6.740;2022-08-21T07:31:43;6.85;;;3.28;;
8480;SDS011;4277;51.354;6.740;2022-08-21T07:34:09;5.32;;;2.83;;
8480;SDS011;4277;51.354;6.740;2022-08-21T07:36:35;7.97;;;2.80;;
8480;SDS011;4277;51.354;6.740;2022-08-21T07:39:02;6.82;;;2.67;;
8480;SDS011;4277;51.354;6.740;2022-08-21T07:41:28;6.80;;;2.63;;
8480;SDS011;4277;51.354;6.740;2022-08-21T07:43:56;5.22;;;2.53;;
8480;SDS011;4277;51.354;6.740;2022-08-21T07:46:22;9.20;;;2.70;;
8480;SDS011;4277;51.354;6.740;2022-08-21T07:48:49;6.03;;;2.67;;
8480;SDS011;4277;51.354;6.740;2022-08-21T07:51:15;6.00;;;2.60;;
8480;SDS011;4277;51.354;6.740;2022-08-21T07:53:42;5.65;;;2.35;;
8480;SDS011;4277;51.354;6.740;2022-08-21T07:56:12;5.75;;;2.30;;
8480;SDS011;4277;51.354;6.740;2022-08-21T07:58:38;7.43;;;2.05;;
8480;SDS011;4277;51.354;6.740;2022-08-21T08:01:05;4.13;;;1.77;;
8480;SDS011;4277;51.354;6.740;2022-08-21T08:03:31;4.10;;;1.58;;
8480;SDS011;4277;51.354;6.740;2022-08-21T08:05:57;4.35;;;1.55;;
8480;SDS011;4277;51.354;6.740;2022-08-21T08:08:24;3.88;;;1.38;;
8480;SDS011;4277;51.354;6.740;2022-08-21T08:10:50;5.72;;;1.58;;
8480;SDS011;4277;51.354;6.740;2022-08-21T08:13:17;3.92;;;1.42;;
8480;SDS011;4277;51.354;6.740;2022-08-21T08:15:43;3.38;;;1.60;;
8480;SDS011;4277;51.354;6.740;2022-08-21T08:18:09;3.90;;;1.40;;
8480;SDS011;4277;51.354;6.740;2022-08-21T08:20:35;4.28;;;1.50;;
8480;SDS011;4277;51.354;6.740;2022-08-21T08:23:02;6.35;;;2.00;;
8480;SDS011;4277;51.354;6.740;2022-08-21T08:25:28;4.03;;;1.80;;
8480;SDS011;4277;51.354;6.740;2022-08-21T08:27:54;5.97;;;1.80;;
8480;SDS011;4277;51.354;6.740;2022-08-21T08:30:21;5.55;;;1.70;;
8480;SDS011;4277;51.354;6.740;2022-08-21T08:32:48;4.53;;;1.85;;
8480;SDS011;4277;51.354;6.740;2022-08-21T08:35:15;4.97;;;1.50;;
8480;SDS011;4277;51.354;6.740;2022-08-21T08:37:41;5.47;;;1.92;;
8480;SDS011;4277;51.354;6.740;2022-08-21T08:40:15;4.03;;;1.60;;
8480;SDS011;4277;51.354;6.740;2022-08-21T08:42:43;2.58;;;1.30;;
8480;SDS011;4277;51.354;6.740;2022-08-21T08:45:12;4.50;;;1.60;;
8480;SDS011;4277;51.354;6.740;2022-08-21T08:47:39;5.25;;;1.73;;
8480;SDS011;4277;51.354;6.740;2022-08-21T08:55:21;2.83;;;1.20;;
8480;SDS011;4277;51.354;6.740;2022-08-21T08:57:51;4.30;;;1.38;;
8480;SDS011;4277;51.354;6.740;2022-08-21T09:00:19;4.20;;;1.50;;
8480;SDS011;4277;51.354;6.740;2022-08-21T09:02:46;4.20;;;1.20;;
8480;SDS011;4277;51.354;6.740;2022-08-21T09:05:20;2.60;;;1.23;;
8480;SDS011;4277;51.354;6.740;2022-08-21T09:11:21;4.22;;;1.73;;
8480;SDS011;4277;51.354;6.740;2022-08-21T09:13:52;3.97;;;1.60;;
8480;SDS011;4277;51.354;6.740;2022-08-21T09:22:03;3.95;;;1.50;;
8480;SDS011;4277;51.354;6.740;2022-08-21T09:24:59;2.63;;;1.30;;
8480;SDS011;4277;51.354;6.740;2022-08-21T09:27:27;3.72;;;1.27;;
8480;SDS011;4277;51.354;6.740;2022-08-21T09:29:56;2.25;;;1.30;;
8480;SDS011;4277;51.354;6.740;2022-08-21T09:32:24;2.78;;;1.50;;
8480;SDS011;4277;51.354;6.740;2022-08-21T09:37:30;3.58;;;1.30;;
8480;SDS011;4277;51.354;6.740;2022-08-21T09:39:59;3.78;;;1.40;;
8480;SDS011;4277;51.354;6.740;2022-08-21T09:42:27;3.40;;;1.45;;
8480;SDS011;4277;51.354;6.740;2022-08-21T09:45:08;4.30;;;1.30;;
8480;SDS011;4277;51.354;6.740;2022-08-21T09:47:35;3.03;;;1.30;;
8480;SDS011;4277;51.354;6.740;2022-08-21T09:50:15;3.47;;;1.38;;
8480;SDS011;4277;51.354;6.740;2022-08-21T09:52:48;3.40;;;1.10;;
8480;SDS011;4277;51.354;6.740;2022-08-21T09:55:21;3.22;;;1.35;;
8480;SDS011;4277;51.354;6.740;2022-08-21T09:58:13;2.53;;;1.05;;
8480;SDS011;4277;51.354;6.740;2022-08-21T10:00:41;2.55;;;1.20;;
8480;SDS011;4277;51.354;6.740;2022-08-21T10:03:17;3.90;;;1.10;;
8480;SDS011;4277;51.354;6.740;2022-08-21T10:05:52;3.13;;;1.17;;
8480;SDS011;4277;51.354;6.740;2022-08-21T10:08:19;3.42;;;1.33;;
8480;SDS011;4277;51.354;6.740;2022-08-21T10:10:49;3.22;;;1.05;;
8480;SDS011;4277;51.354;6.740;2022-08-21T10:23:45;2.67;;;1.23;;
8480;SDS011;4277;51.354;6.740;2022-08-21T10:26:20;3.75;;;1.30;;
8480;SDS011;4277;51.354;6.740;2022-08-21T10:28:59;4.70;;;1.33;;
8480;SDS011;4277;51.354;6.740;2022-08-21T10:36:29;3.80;;;1.27;;
8480;SDS011;4277;51.354;6.740;2022-08-21T10:41:37;1.60;;;1.05;;
8480;SDS011;4277;51.354;6.740;2022-08-21T10:46:54;2.47;;;1.08;;
8480;SDS011;4277;51.354;6.740;2022-08-21T10:49:29;2.83;;;1.10;;
8480;SDS011;4277;51.354;6.740;2022-08-21T10:55:02;3.67;;;1.40;;
8480;SDS011;4277;51.354;6.740;2022-08-21T10:57:40;2.50;;;1.27;;
8480;SDS011;4277;51.354;6.740;2022-08-21T11:00:14;2.53;;;1.02;;
8480;SDS011;4277;51.354;6.740;2022-08-21T11:02:51;2.95;;;1.30;;
8480;SDS011;4277;51.354;6.740;2022-08-21T11:08:07;3.22;;;1.15;;
8480;SDS011;4277;51.354;6.740;2022-08-21T11:10:36;4.55;;;1.30;;
8480;SDS011;4277;51.354;6.740;2022-08-21T11:13:08;2.35;;;1.10;;
8480;SDS011;4277;51.354;6.740;2022-08-21T11:29:48;3.53;;;1.50;;
8480;SDS011;4277;51.354;6.740;2022-08-21T11:45:39;3.10;;;1.27;;
8480;SDS011;4277;51.354;6.740;2022-08-21T11:50:59;3.95;;;1.20;;
8480;SDS011;4277;51.354;6.740;2022-08-21T11:53:32;4.68;;;0.93;;
8480;SDS011;4277;51.354;6.740;2022-08-21T11:56:05;3.83;;;1.23;;
8480;SDS011;4277;51.354;6.740;2022-08-21T11:58:50;3.33;;;1.17;;
8480;SDS011;4277;51.354;6.740;2022-08-21T12:01:20;2.78;;;1.05;;
8480;SDS011;4277;51.354;6.740;2022-08-21T12:06:51;2.92;;;1.15;;
8480;SDS011;4277;51.354;6.740;2022-08-21T12:09:33;2.28;;;1.15;;
8480;SDS011;4277;51.354;6.740;2022-08-21T12:12:06;2.22;;;0.93;;
8480;SDS011;4277;51.354;6.740;2022-08-21T12:14:49;2.72;;;0.90;;
8480;SDS011;4277;51.354;6.740;2022-08-21T12:17:18;3.17;;;1.00;;
8480;SDS011;4277;51.354;6.740;2022-08-21T12:19:56;3.03;;;0.93;;
8480;SDS011;4277;51.354;6.740;2022-08-21T12:22:24;2.53;;;1.25;;
8480;SDS011;4277;51.354;6.740;2022-08-21T12:25:58;6.32;;;1.27;;
8480;SDS011;4277;51.354;6.740;2022-08-21T12:28:47;3.67;;;1.05;;
8480;SDS011;4277;51.354;6.740;2022-08-21T12:34:15;2.45;;;1.10;;
8480;SDS011;4277;51.354;6.740;2022-08-21T12:36:44;2.47;;;1.05;;
8480;SDS011;4277;51.354;6.740;2022-08-21T12:39:15;3.60;;;1.10;;
8480;SDS011;4277;51.354;6.740;2022-08-21T12:41:49;2.20;;;1.10;;
8480;SDS011;4277;51.354;6.740;2022-08-21T12:44:17;2.60;;;0.95;;
8480;SDS011;4277;51.354;6.740;2022-08-21T12:46:56;2.78;;;1.17;;
8480;SDS011;4277;51.354;6.740;2022-08-21T12:49:32;4.13;;;1.10;;
8480;SDS011;4277;51.354;6.740;2022-08-21T12:52:16;2.75;;;0.90;;
8480;SDS011;4277;51.354;6.740;2022-08-21T12:54:49;1.88;;;1.00;;
8480;SDS011;4277;51.354;6.740;2022-08-21T12:57:23;2.33;;;1.02;;
8480;SDS011;4277;51.354;6.740;2022-08-21T12:59:58;2.03;;;0.80;;
8480;SDS011;4277;51.354;6.740;2022-08-21T13:02:27;2.33;;;1.10;;
8480;SDS011;4277;51.354;6.740;2022-08-21T13:05:15;2.85;;;1.13;;
8480;SDS011;4277;51.354;6.740;2022-08-21T13:07:48;2.85;;;1.25;;
8480;SDS011;4277;51.354;6.740;2022-08-21T13:10:30;3.00;;;1.00;;
8480;SDS011;4277;51.354;6.740;2022-08-21T13:13:02;2.70;;;0.80;;
8480;SDS011;4277;51.354;6.740;2022-08-21T13:15:32;1.83;;;0.90;;
8480;SDS011;4277;51.354;6.740;2022-08-21T13:18:01;3.25;;;1.20;;
8480;SDS011;4277;51.354;6.740;2022-08-21T13:20:32;3.05;;;1.48;;
8480;SDS011;4277;51.354;6.740;2022-08-21T13:23:06;2.33;;;0.90;;
8480;SDS011;4277;51.354;6.740;2022-08-21T13:25:40;3.75;;;1.08;;
8480;SDS011;4277;51.354;6.740;2022-08-21T13:28:08;2.33;;;0.77;;
8480;SDS011;4277;51.354;6.740;2022-08-21T13:30:44;3.40;;;1.10;;
8480;SDS011;4277;51.354;6.740;2022-08-21T13:33:19;2.28;;;1.02;;
8480;SDS011;4277;51.354;6.740;2022-08-21T13:38:41;2.60;;;1.00;;
8480;SDS011;4277;51.354;6.740;2022-08-21T13:43:44;1.77;;;0.80;;
8480;SDS011;4277;51.354;6.740;2022-08-21T13:46:14;3.72;;;1.23;;
8480;SDS011;4277;51.354;6.740;2022-08-21T13:48:42;2.20;;;1.00;;
8480;SDS011;4277;51.354;6.740;2022-08-21T13:51:09;3.35;;;1.10;;
8480;SDS011;4277;51.354;6.740;2022-08-21T13:53:36;4.65;;;1.30;;
8480;SDS011;4277;51.354;6.740;2022-08-21T13:56:10;3.60;;;1.23;;
8480;SDS011;4277;51.354;6.740;2022-08-21T13:58:53;4.55;;;1.17;;
8480;SDS011;4277;51.354;6.740;2022-08-21T14:01:39;2.88;;;1.30;;
8480;SDS011;4277;51.354;6.740;2022-08-21T14:04:18;2.95;;;0.98;;
8480;SDS011;4277;51.354;6.740;2022-08-21T14:06:48;2.25;;;1.00;;
8480;SDS011;4277;51.354;6.740;2022-08-21T14:09:26;3.15;;;1.17;;
8480;SDS011;4277;51.354;6.740;2022-08-21T14:11:53;3.13;;;1.10;;
8480;SDS011;4277;51.354;6.740;2022-08-21T14:14:25;2.85;;;1.10;;
8480;SDS011;4277;51.354;6.740;2022-08-21T14:17:35;1.83;;;0.90;;
8480;SDS011;4277;51.354;6.740;2022-08-21T14:20:04;2.45;;;1.20;;
8480;SDS011;4277;51.354;6.740;2022-08-21T14:27:31;3.55;;;1.10;;
8480;SDS011;4277;51.354;6.740;2022-08-21T14:29:59;1.80;;;1.30;;
8480;SDS011;4277;51.354;6.740;2022-08-21T14:32:36;2.72;;;1.40;;
8480;SDS011;4277;51.354;6.740;2022-08-21T14:35:03;4.22;;;1.48;;
8480;SDS011;4277;51.354;6.740;2022-08-21T14:37:29;2.70;;;1.10;;
8480;SDS011;4277;51.354;6.740;2022-08-21T14:39:55;2.00;;;0.90;;
8480;SDS011;4277;51.354;6.740;2022-08-21T14:42:21;2.40;;;1.20;;
8480;SDS011;4277;51.354;6.740;2022-08-21T14:44:48;3.00;;;1.02;;
8480;SDS011;4277;51.354;6.740;2022-08-21T14:47:15;3.10;;;1.20;;
8480;SDS011;4277;51.354;6.740;2022-08-21T14:49:40;2.05;;;1.00;;
8480;SDS011;4277;51.354;6.740;2022-08-21T14:52:06;2.00;;;1.35;;
8480;SDS011;4277;51.354;6.740;2022-08-21T14:54:32;3.22;;;1.10;;
8480;SDS011;4277;51.354;6.740;2022-08-21T14:56:59;3.95;;;1.05;;
8480;SDS011;4277;51.354;6.740;2022-08-21T14:59:29;3.78;;;1.23;;
8480;SDS011;4277;51.354;6.740;2022-08-21T15:02:09;2.45;;;1.10;;
8480;SDS011;4277;51.354;6.740;2022-08-21T15:04:35;3.75;;;1.15;;
8480;SDS011;4277;51.354;6.740;2022-08-21T15:07:00;2.78;;;1.20;;
8480;SDS011;4277;51.354;6.740;2022-08-21T15:09:26;1.73;;;1.05;;
8480;SDS011;4277;51.354;6.740;2022-08-21T15:11:53;2.45;;;1.10;;
8480;SDS011;4277;51.354;6.740;2022-08-21T15:14:24;2.75;;;1.00;;
8480;SDS011;4277;51.354;6.740;2022-08-21T15:16:54;3.60;;;1.20;;
8480;SDS011;4277;51.354;6.740;2022-08-21T15:19:20;3.15;;;1.30;;
8480;SDS011;4277;51.354;6.740;2022-08-21T15:21:45;1.63;;;0.77;;
8480;SDS011;4277;51.354;6.740;2022-08-21T15:24:11;3.47;;;1.10;;
8480;SDS011;4277;51.354;6.740;2022-08-21T15:29:37;5.32;;;2.90;;
8480;SDS011;4277;51.354;6.740;2022-08-21T15:32:25;3.17;;;1.70;;
8480;SDS011;4277;51.354;6.740;2022-08-21T15:34:51;3.58;;;1.48;;
8480;SDS011;4277;51.354;6.740;2022-08-21T15:37:18;1.75;;;1.05;;
8480;SDS011;4277;51.354;6.740;2022-08-21T15:39:45;3.58;;;1.20;;
8480;SDS011;4277;51.354;6.740;2022-08-21T15:42:11;2.03;;;1.30;;
8480;SDS011;4277;51.354;6.740;2022-08-21T15:44:41;2.33;;;1.10;;
8480;SDS011;4277;51.354;6.740;2022-08-21T15:47:18;2.28;;;1.20;;
8480;SDS011;4277;51.354;6.740;2022-08-21T15:49:47;2.53;;;1.10;;
8480;SDS011;4277;51.354;6.740;2022-08-21T15:52:14;3.65;;;1.48;;
8480;SDS011;4277;51.354;6.740;2022-08-21T15:54:42;2.78;;;1.20;;
8480;SDS011;4277;51.354;6.740;2022-08-21T15:57:09;4.55;;;1.23;;
8480;SDS011;4277;51.354;6.740;2022-08-21T15:59:40;3.20;;;1.35;;
8480;SDS011;4277;51.354;6.740;2022-08-21T16:02:18;3.60;;;1.30;;
8480;SDS011;4277;51.354;6.740;2022-08-21T16:04:51;3.50;;;1.20;;
8480;SDS011;4277;51.354;6.740;2022-08-21T16:07:18;3.50;;;1.33;;
8480;SDS011;4277;51.354;6.740;2022-08-21T16:09:43;3.75;;;1.25;;
8480;SDS011;4277;51.354;6.740;2022-08-21T16:12:11;3.15;;;1.20;;
8480;SDS011;4277;51.354;6.740;2022-08-21T16:14:44;4.10;;;1.70;;
8480;SDS011;4277;51.354;6.740;2022-08-21T16:17:10;4.45;;;1.77;;
8480;SDS011;4277;51.354;6.740;2022-08-21T16:19:36;6.30;;;3.00;;
8480;SDS011;4277;51.354;6.740;2022-08-21T16:22:02;4.55;;;1.85;;
8480;SDS011;4277;51.354;6.740;2022-08-21T16:24:28;5.68;;;1.50;;
8480;SDS011;4277;51.354;6.740;2022-08-21T16:26:54;3.28;;;1.50;;
8480;SDS011;4277;51.354;6.740;2022-08-21T16:29:20;4.07;;;2.17;;
8480;SDS011;4277;51.354;6.740;2022-08-21T16:31:47;6.45;;;2.90;;
8480;SDS011;4277;51.354;6.740;2022-08-21T16:34:15;5.00;;;1.77;;
8480;SDS011;4277;51.354;6.740;2022-08-21T16:36:43;6.05;;;2.10;;
8480;SDS011;4277;51.354;6.740;2022-08-21T16:39:08;7.50;;;2.88;;
8480;SDS011;4277;51.354;6.740;2022-08-21T16:41:34;3.58;;;1.70;;
8480;SDS011;4277;51.354;6.740;2022-08-21T16:44:01;4.65;;;1.70;;
8480;SDS011;4277;51.354;6.740;2022-08-21T16:46:28;4.43;;;1.92;;
8480;SDS011;4277;51.354;6.740;2022-08-21T16:48:57;5.38;;;1.80;;
8480;SDS011;4277;51.354;6.740;2022-08-21T16:51:22;5.43;;;2.00;;
8480;SDS011;4277;51.354;6.740;2022-08-21T16:53:49;5.13;;;1.92;;
8480;SDS011;4277;51.354;6.740;2022-08-21T16:56:15;5.32;;;1.73;;